Time;durP1;ratioP1;P1;durP2;ratioP2;P2;SDS_P1;SDS_P2;PMS_P1;PMS_P2;Temp;Humidity;BMP_temperature;BMP_pressure;BME280_temperature;BME280_humidity;BME280_pressure;Samples;Min_cycle;Max_cycle;Signal;HPM_P1;HPM_P2
2023/07/21 00:02:30;;;;;;;6.10;5.50;;;;;;;13.62;93.67;101090.53;5285320;28;20548;-72
2023/07/21 00:05:01;;;;;;;7.23;6.53;;;;;;;13.61;93.77;101094.91;5285766;28;20476;-72
2023/07/21 00:07:35;;;;;;;7.17;6.50;;;;;;;13.48;94.52;101089.06;5284224;28;20060;-72
2023/07/21 00:10:08;;;;;;;9.77;5.97;;;;;;;13.52;94.47;101099.47;5285473;28;20052;-71
2023/07/21 00:12:47;;;;;;;8.13;6.43;;;;;;;13.54;94.77;101093.31;5285226;28;20549;-71
2023/07/21 00:15:19;;;;;;;7.13;6.43;;;;;;;13.58;94.65;101089.72;5285200;28;20050;-72
2023/07/21 00:17:51;;;;;;;9.00;6.67;;;;;;;13.52;94.66;101083.75;5285490;28;20029;-72
2023/07/21 00:20:25;;;;;;;7.68;6.30;;;;;;;13.57;94.59;101085.41;5285205;28;20032;-71
2023/07/21 00:22:57;;;;;;;7.47;6.20;;;;;;;13.48;94.63;101081.19;5285030;28;20036;-72
2023/07/21 00:25:28;;;;;;;9.87;6.13;;;;;;;13.56;94.54;101083.66;5285168;28;20063;-71
2023/07/21 00:27:59;;;;;;;7.70;6.87;;;;;;;13.49;95.00;101080.31;5284942;28;20036;-71
2023/07/21 00:30:32;;;;;;;6.80;6.10;;;;;;;13.45;95.14;101076.03;5285118;28;20376;-71
2023/07/21 00:33:03;;;;;;;6.53;5.93;;;;;;;13.46;95.30;101074.28;5284759;28;20465;-71
2023/07/21 00:35:35;;;;;;;8.38;5.57;;;;;;;13.44;94.82;101076.94;5284765;28;20144;-71
2023/07/21 00:38:06;;;;;;;7.13;6.20;;;;;;;13.36;95.58;101072.72;5285030;28;20032;-71
2023/07/21 00:40:38;;;;;;;7.47;6.67;;;;;;;13.43;95.54;101075.19;5285025;28;20467;-72
2023/07/21 00:43:09;;;;;;;7.73;6.63;;;;;;;13.52;95.24;101061.03;5284945;28;20039;-72
2023/07/21 00:45:41;;;;;;;7.83;6.13;;;;;;;13.48;95.34;101069.88;5284467;28;20416;-72
2023/07/21 00:48:16;;;;;;;7.47;6.20;;;;;;;13.50;95.45;101065.44;5284766;28;20422;-72
2023/07/21 00:50:50;;;;;;;11.93;6.22;;;;;;;13.44;95.50;101061.22;5283499;28;20110;-71
2023/07/21 00:53:23;;;;;;;7.60;6.80;;;;;;;13.50;94.86;101070.69;5284661;28;20028;-72
2023/07/21 00:55:54;;;;;;;8.98;6.95;;;;;;;13.36;95.63;101054.41;5284281;28;20059;-72
2023/07/21 00:58:26;;;;;;;9.67;6.60;;;;;;;13.27;96.40;101063.28;5283265;28;20137;-70
2023/07/21 01:00:57;;;;;;;7.38;6.68;;;;;;;13.37;95.93;101059.59;5284625;28;20388;-70
2023/07/21 01:03:30;;;;;;;9.43;6.47;;;;;;;13.26;96.06;101057.16;5283721;28;20025;-71
2023/07/21 01:06:03;;;;;;;7.25;6.28;;;;;;;13.25;96.47;101046.72;5284359;28;20086;-71
2023/07/21 01:08:35;;;;;;;8.13;7.13;;;;;;;13.13;97.01;101055.69;5284312;28;20024;-72
2023/07/21 01:11:10;;;;;;;7.93;7.13;;;;;;;13.06;97.41;101054.94;5284331;28;20102;-71
2023/07/21 01:13:42;;;;;;;7.68;6.82;;;;;;;13.06;97.77;101049.69;5284106;28;20032;-72
2023/07/21 01:16:13;;;;;;;7.90;7.10;;;;;;;13.16;97.65;101049.53;5284230;28;20035;-72
2023/07/21 01:18:45;;;;;;;7.03;6.33;;;;;;;13.08;97.62;101044.44;5283926;28;20050;-72
2023/07/21 01:21:41;;;;;;;9.63;6.75;;;;;;;12.95;98.42;101042.03;5283763;28;20032;-71
2023/07/21 01:24:21;;;;;;;7.60;6.35;;;;;;;12.92;98.66;101036.00;5284302;28;20111;-72
2023/07/21 01:26:55;;;;;;;9.80;7.00;;;;;;;12.78;98.80;101036.25;5283802;28;20527;-72
2023/07/21 01:29:28;;;;;;;9.98;7.40;;;;;;;12.74;99.28;101035.44;5284013;28;20035;-71
2023/07/21 01:32:01;;;;;;;8.30;7.30;;;;;;;12.69;99.43;101037.28;5283412;28;20082;-72
2023/07/21 01:34:34;;;;;;;7.95;7.15;;;;;;;12.70;99.50;101036.41;5283838;28;20127;-72
2023/07/21 01:37:08;;;;;;;7.75;7.05;;;;;;;12.60;100.00;101032.22;5284215;28;20062;-72
2023/07/21 01:39:41;;;;;;;8.15;7.35;;;;;;;12.53;100.00;101028.84;5283815;28;20028;-72
2023/07/21 01:42:13;;;;;;;7.82;6.82;;;;;;;12.52;100.00;101023.63;5283648;28;20491;-72
2023/07/21 01:44:44;;;;;;;9.13;7.30;;;;;;;12.55;100.00;101027.06;5283575;28;20036;-72
2023/07/21 01:47:16;;;;;;;8.30;7.50;;;;;;;12.55;100.00;101021.81;5283695;28;20090;-71
2023/07/21 01:49:47;;;;;;;8.70;7.90;;;;;;;12.51;100.00;101022.78;5283624;28;20033;-72
2023/07/21 01:52:19;;;;;;;8.73;7.43;;;;;;;12.51;100.00;101020.16;5283624;28;20032;-70
2023/07/21 01:55:01;;;;;;;8.77;7.93;;;;;;;12.44;100.00;101017.69;5283528;28;20035;-71
2023/07/21 01:57:37;;;;;;;8.43;7.43;;;;;;;12.51;100.00;101019.28;5283643;28;20047;-71
2023/07/21 02:00:12;;;;;;;10.80;8.60;;;;;;;12.37;100.00;101015.16;5283791;28;20059;-72
2023/07/21 02:02:47;;;;;;;8.18;7.28;;;;;;;12.46;100.00;101015.88;5283108;28;20032;-71
2023/07/21 02:05:22;;;;;;;8.65;7.53;;;;;;;12.42;100.00;101014.22;5283452;28;20051;-71
2023/07/21 02:07:54;;;;;;;9.07;7.53;;;;;;;12.30;100.00;101016.16;5283518;28;20032;-72
2023/07/21 02:10:25;;;;;;;8.07;7.27;;;;;;;12.36;100.00;101007.34;5283473;28;20199;-72
2023/07/21 02:12:57;;;;;;;8.40;7.53;;;;;;;12.33;100.00;101004.78;5283336;28;20033;-71
2023/07/21 02:15:28;;;;;;;8.43;7.63;;;;;;;12.20;100.00;101009.34;5283035;28;20510;-71
2023/07/21 02:18:00;;;;;;;9.60;7.63;;;;;;;12.17;100.00;101005.03;5283524;28;20443;-71
2023/07/21 02:20:31;;;;;;;8.87;7.87;;;;;;;12.20;100.00;101001.50;5283268;28;20101;-71
2023/07/21 02:23:03;;;;;;;9.30;7.75;;;;;;;12.15;100.00;101003.31;5282123;28;20036;-71
2023/07/21 02:25:34;;;;;;;10.57;8.30;;;;;;;12.17;100.00;101009.38;5282953;28;20166;-72
2023/07/21 02:28:05;;;;;;;10.10;8.30;;;;;;;12.07;100.00;101003.44;5283055;28;20028;-72
2023/07/21 02:30:37;;;;;;;8.13;7.33;;;;;;;12.00;100.00;100999.22;5285185;28;20028;-72
2023/07/21 02:33:09;;;;;;;8.03;7.17;;;;;;;12.01;100.00;100999.19;5287213;28;20029;-71
2023/07/21 02:35:40;;;;;;;10.55;7.47;;;;;;;11.95;100.00;100999.28;5287465;28;20135;-72
2023/07/21 02:38:11;;;;;;;8.30;7.37;;;;;;;11.93;100.00;101002.78;5287319;28;20033;-71
2023/07/21 02:40:43;;;;;;;8.17;7.37;;;;;;;11.96;100.00;100997.50;5287299;28;20037;-71
2023/07/21 02:43:16;;;;;;;8.53;7.73;;;;;;;11.84;100.00;100990.69;5287387;28;20024;-72
2023/07/21 02:45:49;;;;;;;8.45;7.65;;;;;;;11.88;100.00;100996.75;5287137;28;20051;-72
2023/07/21 02:48:21;;;;;;;8.25;7.35;;;;;;;11.81;100.00;100996.81;5287258;28;20033;-72
2023/07/21 02:50:56;;;;;;;8.60;7.70;;;;;;;11.77;100.00;100989.94;5286938;28;20043;-72
2023/07/21 02:53:28;;;;;;;8.70;7.90;;;;;;;11.74;100.00;100987.38;5287089;28;20063;-71
2023/07/21 02:56:00;;;;;;;9.47;8.13;;;;;;;11.73;100.00;100984.78;5287207;28;20032;-71
2023/07/21 02:58:32;;;;;;;9.90;8.75;;;;;;;11.64;100.00;100981.41;5287165;28;20024;-71
2023/07/21 03:01:03;;;;;;;9.82;8.82;;;;;;;11.68;100.00;100984.84;5286916;28;20025;-71
2023/07/21 03:03:35;;;;;;;10.20;8.20;;;;;;;11.61;100.00;100980.59;5286455;28;20032;-72
2023/07/21 03:06:07;;;;;;;10.70;9.57;;;;;;;11.54;100.00;100990.22;5286806;28;20044;-72
2023/07/21 03:08:38;;;;;;;9.37;8.47;;;;;;;11.57;100.00;100991.97;5285262;28;20037;-72
2023/07/21 03:11:13;;;;;;;9.03;8.13;;;;;;;11.54;100.00;100981.56;5286623;28;20028;-71
2023/07/21 03:13:44;;;;;;;8.68;7.82;;;;;;;11.53;100.00;100983.31;5286468;28;20025;-72
2023/07/21 03:16:16;;;;;;;9.70;8.80;;;;;;;11.48;100.00;100987.72;5286613;28;20058;-70
2023/07/21 03:18:47;;;;;;;9.47;8.53;;;;;;;11.48;100.00;100982.50;5286581;28;20438;-71
2023/07/21 03:21:18;;;;;;;8.67;7.87;;;;;;;11.47;100.00;100991.22;5286667;28;20063;-71
2023/07/21 03:23:50;;;;;;;8.77;7.97;;;;;;;11.45;100.00;100985.16;5286440;28;20086;-71
2023/07/21 03:26:21;;;;;;;11.37;8.50;;;;;;;11.44;100.00;100980.81;5286509;28;20029;-71
2023/07/21 03:28:55;;;;;;;10.57;8.30;;;;;;;11.47;100.00;100986.84;5286137;28;20115;-71
2023/07/21 03:31:26;;;;;;;9.40;8.52;;;;;;;11.50;100.00;100985.97;5285859;28;20029;-72
2023/07/21 03:33:58;;;;;;;10.00;8.27;;;;;;;11.42;100.00;100985.19;5285639;28;20054;-71
2023/07/21 03:36:29;;;;;;;10.40;8.80;;;;;;;11.38;100.00;100986.09;5286321;28;20462;-72
2023/07/21 03:39:01;;;;;;;9.30;8.40;;;;;;;11.43;100.00;100981.69;5286120;28;20032;-72
2023/07/21 03:41:32;;;;;;;9.07;8.17;;;;;;;11.44;100.00;100989.50;5285921;28;20174;-71
2023/07/21 03:44:04;;;;;;;10.00;9.07;;;;;;;11.43;100.00;100981.69;5286084;28;20537;-71
2023/07/21 03:46:36;;;;;;;9.60;8.70;;;;;;;11.44;100.00;100986.03;5285687;28;20035;-71
2023/07/21 03:49:11;;;;;;;12.18;9.68;;;;;;;11.43;100.00;100984.28;5285685;28;20418;-72
2023/07/21 03:51:43;;;;;;;9.15;8.32;;;;;;;11.44;100.00;100984.28;5285911;28;20195;-71
2023/07/21 03:54:14;;;;;;;8.90;8.00;;;;;;;11.38;100.00;100975.66;5285860;28;20095;-72
2023/07/21 03:56:45;;;;;;;9.23;8.43;;;;;;;11.38;100.00;100986.09;5285504;28;20090;-72
2023/07/21 03:59:17;;;;;;;12.03;9.50;;;;;;;11.34;100.00;100984.44;5285622;28;20456;-72
2023/07/21 04:01:48;;;;;;;10.20;9.30;;;;;;;11.30;100.00;100986.19;5285515;28;20484;-72
2023/07/21 04:04:19;;;;;;;10.43;9.37;;;;;;;11.30;100.00;100983.59;5285829;28;20132;-71
2023/07/21 04:06:51;;;;;;;9.43;8.47;;;;;;;11.32;100.00;100981.84;5285837;28;20082;-70
2023/07/21 04:09:22;;;;;;;9.73;8.73;;;;;;;11.26;100.00;100980.16;5285623;28;20108;-69
2023/07/21 04:11:54;;;;;;;10.60;9.50;;;;;;;11.19;100.00;100975.03;5284385;28;20058;-69
2023/07/21 04:14:25;;;;;;;10.70;9.60;;;;;;;11.23;100.00;100964.53;5285537;28;20059;-71
2023/07/21 04:16:57;;;;;;;10.63;9.73;;;;;;;11.22;100.00;100961.94;5285466;28;20036;-71
2023/07/21 04:19:28;;;;;;;9.77;8.77;;;;;;;11.23;100.00;100967.16;5285160;28;20127;-70
2023/07/21 04:22:00;;;;;;;10.67;9.07;;;;;;;11.19;100.00;100961.97;5285461;28;20086;-71
2023/07/21 04:24:33;;;;;;;10.98;9.90;;;;;;;11.26;100.00;100963.66;5285336;28;20043;-71
2023/07/21 04:27:05;;;;;;;15.43;13.00;;;;;;;11.25;100.00;100961.91;5285383;28;20115;-71
2023/07/21 04:29:36;;;;;;;13.97;11.93;;;;;;;11.34;100.00;100951.38;5285241;28;20400;-72
2023/07/21 04:32:07;;;;;;;13.47;12.07;;;;;;;11.28;100.00;100961.88;5285078;28;20028;-71
2023/07/21 04:34:39;;;;;;;14.53;12.73;;;;;;;11.33;100.00;100962.66;5284929;28;20425;-72
2023/07/21 04:37:10;;;;;;;12.87;11.67;;;;;;;11.40;100.00;100953.91;5285158;28;20060;-72
2023/07/21 04:39:41;;;;;;;15.57;13.63;;;;;;;11.41;100.00;100954.75;5285055;28;20105;-70
2023/07/21 04:42:13;;;;;;;15.20;13.63;;;;;;;11.49;100.00;100965.94;5285040;28;20032;-71
2023/07/21 04:44:44;;;;;;;16.77;12.97;;;;;;;11.51;100.00;100961.56;5283728;28;20472;-72
2023/07/21 04:47:16;;;;;;;13.50;12.30;;;;;;;11.58;100.00;100967.59;5284918;28;20090;-72
2023/07/21 04:49:48;;;;;;;15.97;14.10;;;;;;;11.64;100.00;100957.03;5284788;28;20032;-72
2023/07/21 04:52:20;;;;;;;16.15;14.60;;;;;;;11.70;100.00;100958.69;5284403;28;20035;-72
2023/07/21 04:54:52;;;;;;;;;;;;;;;11.79;100.00;100955.97;5285024;28;20046;-71
2023/07/21 04:57:23;;;;;;;16.92;14.90;;;;;;;11.88;100.00;100954.94;5284918;28;19916;-71
2023/07/21 04:59:56;;;;;;;16.40;14.87;;;;;;;11.99;100.00;100953.06;5284415;28;20039;-71
2023/07/21 05:02:28;;;;;;;15.90;14.15;;;;;;;12.03;100.00;100954.75;5284131;28;20029;-70
2023/07/21 05:05:01;;;;;;;;;;;;;;;12.15;100.00;100961.50;5284982;28;20039;-70
2023/07/21 05:07:32;;;;;;;16.02;14.52;;;;;;;12.22;100.00;100963.16;5284481;28;20287;-72
2023/07/21 05:10:04;;;;;;;19.73;15.30;;;;;;;12.34;100.00;100954.22;5284449;28;20078;-71
2023/07/21 05:12:35;;;;;;;17.23;14.20;;;;;;;12.46;100.00;100953.13;5284352;28;20056;-72
2023/07/21 05:15:07;;;;;;;15.70;14.33;;;;;;;12.57;100.00;100946.84;5284268;28;20298;-71
2023/07/21 05:17:40;;;;;;;16.48;14.82;;;;;;;12.69;100.00;100943.13;5284213;28;20029;-71
2023/07/21 05:20:11;;;;;;;15.27;13.98;;;;;;;12.74;100.00;100949.13;5284524;28;20464;-71
2023/07/21 05:22:43;;;;;;;15.47;13.87;;;;;;;12.85;100.00;100946.31;5284059;28;20040;-72
2023/07/21 05:25:17;;;;;;;15.90;14.30;;;;;;;12.92;100.00;100947.91;5284227;28;20491;-72
2023/07/21 05:27:49;;;;;;;16.17;14.40;;;;;;;13.08;100.00;100956.31;5282695;28;20502;-70
2023/07/21 05:30:21;;;;;;;14.60;13.20;;;;;;;13.21;100.00;100950.81;5283549;28;20040;-70
2023/07/21 05:32:56;;;;;;;15.43;13.05;;;;;;;13.38;100.00;100960.97;5283824;28;20031;-71
2023/07/21 05:35:29;;;;;;;14.52;13.10;;;;;;;13.45;100.00;100963.41;5283775;28;20049;-71
2023/07/21 05:38:00;;;;;;;;;;;;;;;13.63;100.00;100958.66;5284381;28;20032;-71
2023/07/21 05:40:31;;;;;;;13.50;12.20;;;;;;;13.76;99.35;100964.50;5283878;28;20364;-71
2023/07/21 05:43:05;;;;;;;14.33;12.70;;;;;;;13.88;98.66;100961.59;5283790;28;20320;-71
2023/07/21 05:45:39;;;;;;;15.02;13.40;;;;;;;14.00;98.05;100961.28;5283549;28;20055;-71
2023/07/21 05:48:11;;;;;;;13.90;12.60;;;;;;;14.09;97.55;100964.56;5283849;28;20054;-71
2023/07/21 05:50:42;;;;;;;13.87;12.57;;;;;;;14.21;97.03;100962.50;5281009;28;20492;-71
2023/07/21 05:53:14;;;;;;;14.13;12.73;;;;;;;14.38;95.77;100956.84;5281537;28;20036;-72
2023/07/21 05:55:46;;;;;;;12.43;11.27;;;;;;;14.47;94.07;100962.75;5283083;28;20361;-70
2023/07/21 05:58:22;;;;;;;13.77;12.38;;;;;;;14.48;93.82;100962.72;5282975;28;20085;-70
2023/07/21 06:00:54;;;;;;;13.13;11.57;;;;;;;14.64;94.02;100967.59;5283323;28;20033;-71
2023/07/21 06:03:26;;;;;;;12.30;11.20;;;;;;;14.70;93.23;100970.91;5282771;28;20043;-71
2023/07/21 06:05:58;;;;;;;15.55;11.45;;;;;;;14.84;92.67;100967.88;5281407;28;20376;-71
2023/07/21 06:08:30;;;;;;;11.93;10.73;;;;;;;14.84;91.85;100967.88;5282860;28;20036;-70
2023/07/21 06:11:02;;;;;;;12.95;11.23;;;;;;;14.86;90.53;100971.34;5283454;28;20380;-70
2023/07/21 06:13:34;;;;;;;13.30;11.30;;;;;;;14.89;90.30;100973.03;5282514;28;20455;-70
2023/07/21 06:16:05;;;;;;;13.47;11.13;;;;;;;15.00;89.31;100970.94;5283489;28;20033;-71
2023/07/21 06:18:36;;;;;;;12.80;11.63;;;;;;;15.07;89.18;100972.53;5282421;28;20032;-71
2023/07/21 06:21:11;;;;;;;13.23;12.03;;;;;;;15.24;88.51;100969.38;5283137;28;20425;-72
2023/07/21 06:23:44;;;;;;;14.90;13.50;;;;;;;15.21;87.03;100966.84;5282707;28;20051;-71
2023/07/21 06:26:15;;;;;;;13.65;12.45;;;;;;;15.27;87.22;100969.31;5283472;28;20033;-71
2023/07/21 06:28:46;;;;;;;15.53;12.77;;;;;;;15.39;87.64;100967.22;5282651;28;20507;-71
2023/07/21 06:31:18;;;;;;;13.63;11.47;;;;;;;15.45;86.45;100972.28;5282599;28;20028;-72
2023/07/21 06:33:50;;;;;;;13.40;12.13;;;;;;;15.48;86.27;100972.19;5281207;28;20040;-71
2023/07/21 06:36:21;;;;;;;13.57;12.20;;;;;;;15.55;85.69;100968.47;5282714;28;20464;-72
2023/07/21 06:38:52;;;;;;;13.27;11.93;;;;;;;15.67;86.85;100968.09;5281924;28;20032;-71
2023/07/21 06:41:24;;;;;;;14.10;12.77;;;;;;;15.73;86.62;100974.06;5281682;28;20036;-71
2023/07/21 06:43:55;;;;;;;13.50;12.30;;;;;;;15.85;85.78;100971.09;5281400;28;20036;-71
2023/07/21 06:46:26;;;;;;;14.43;13.03;;;;;;;15.94;83.05;100975.19;5283198;28;20028;-72
2023/07/21 06:48:58;;;;;;;14.10;12.17;;;;;;;15.93;83.00;100963.81;5282218;28;20032;-72
2023/07/21 06:51:30;;;;;;;15.25;13.07;;;;;;;15.95;83.07;100971.66;5283066;28;20036;-71
2023/07/21 06:54:03;;;;;;;13.73;12.33;;;;;;;16.01;82.83;100972.31;5282418;28;20033;-72
2023/07/21 06:56:35;;;;;;;14.85;12.48;;;;;;;16.03;82.54;100965.25;5282994;28;20033;-71
2023/07/21 06:59:07;;;;;;;13.53;12.33;;;;;;;16.18;82.10;100968.25;5281772;28;20033;-71
2023/07/21 07:01:38;;;;;;;13.50;12.17;;;;;;;16.24;81.62;100968.06;5282301;28;20293;-71
2023/07/21 07:04:09;;;;;;;15.00;11.23;;;;;;;16.48;81.57;100961.09;5280920;28;20058;-72
2023/07/21 07:06:42;;;;;;;11.80;10.77;;;;;;;16.55;80.59;100964.38;5282869;28;20174;-72
2023/07/21 07:09:14;;;;;;;;;;;;;;;16.84;80.61;100966.00;5282662;28;20040;-72
2023/07/21 07:11:47;;;;;;;11.95;10.65;;;;;;;16.86;79.51;100960.72;5282416;28;19912;-71
2023/07/21 07:14:18;;;;;;;13.75;11.70;;;;;;;16.78;79.72;100960.97;5281457;28;20036;-71
2023/07/21 07:16:50;;;;;;;14.33;10.97;;;;;;;16.87;79.16;100959.78;5284746;28;20111;-72
2023/07/21 07:19:21;;;;;;;13.87;12.47;;;;;;;16.80;78.52;100955.63;5284738;28;20029;-71
2023/07/21 07:21:53;;;;;;;12.70;11.40;;;;;;;16.85;79.80;100951.06;5286361;28;20170;-71
2023/07/21 07:24:24;;;;;;;14.20;12.80;;;;;;;16.89;78.71;100942.19;5285958;28;20119;-72
2023/07/21 07:26:56;;;;;;;14.82;13.40;;;;;;;17.03;78.54;100946.91;5286484;28;20491;-72
2023/07/21 07:29:27;;;;;;;17.20;13.23;;;;;;;17.41;78.06;100953.38;5285668;28;20120;-73
2023/07/21 07:31:59;;;;;;;17.00;15.27;;;;;;;17.70;77.24;100951.38;5284857;28;20059;-72
2023/07/21 07:34:30;;;;;;;18.60;16.70;;;;;;;17.76;75.58;100953.78;5285479;28;20416;-71
2023/07/21 07:37:02;;;;;;;17.83;14.83;;;;;;;17.91;74.03;100957.59;5286325;28;20035;-72
2023/07/21 07:39:34;;;;;;;16.27;14.50;;;;;;;17.87;73.95;100945.44;5285216;28;20357;-72
2023/07/21 07:42:06;;;;;;;15.10;13.07;;;;;;;18.09;72.29;100957.75;5285497;28;20032;-72
2023/07/21 07:44:39;;;;;;;11.97;10.57;;;;;;;18.35;69.94;100959.28;5284932;28;20032;-71
2023/07/21 07:47:10;;;;;;;13.25;11.90;;;;;;;18.45;68.28;100967.69;5286016;28;20494;-71
2023/07/21 07:49:41;;;;;;;12.33;11.17;;;;;;;18.39;67.75;100963.53;5284659;28;20033;-72
2023/07/21 07:52:13;;;;;;;13.80;10.80;;;;;;;18.64;68.36;100968.59;5285318;28;20024;-72
2023/07/21 07:54:44;;;;;;;10.30;9.30;;;;;;;18.99;68.31;100962.72;5284500;28;20031;-71
2023/07/21 07:57:16;;;;;;;16.80;10.13;;;;;;;19.39;65.05;100968.81;5284276;28;20272;-71
2023/07/21 07:59:47;;;;;;;12.80;10.00;;;;;;;19.38;65.13;100964.47;5285182;28;20414;-71
2023/07/21 08:02:18;;;;;;;15.13;10.10;;;;;;;19.45;64.60;100968.53;5285113;28;20063;-72
2023/07/21 08:04:49;;;;;;;11.47;9.90;;;;;;;19.52;62.51;100972.59;5283841;28;20483;-72
2023/07/21 08:07:21;;;;;;;9.57;8.33;;;;;;;19.76;63.29;100967.09;5286113;28;20032;-72
2023/07/21 08:09:52;;;;;;;11.47;10.33;;;;;;;19.86;62.57;100968.38;5284843;28;20028;-72
2023/07/21 08:12:24;;;;;;;12.43;11.17;;;;;;;19.72;61.77;100958.41;5285700;28;20106;-72
2023/07/21 08:14:55;;;;;;;12.13;10.63;;;;;;;19.58;62.13;100953.81;5284853;28;20028;-72
2023/07/21 08:17:26;;;;;;;11.50;10.30;;;;;;;19.78;61.50;100959.94;5284423;28;20161;-72
2023/07/21 08:19:58;;;;;;;11.03;9.57;;;;;;;19.91;60.84;100961.06;5284336;28;20098;-72
2023/07/21 08:22:29;;;;;;;10.40;9.37;;;;;;;20.15;59.03;100964.28;5285306;28;20033;-72
2023/07/21 08:25:00;;;;;;;11.83;10.10;;;;;;;20.35;60.31;100960.63;5285299;28;20033;-72
2023/07/21 08:27:34;;;;;;;12.10;10.60;;;;;;;20.23;60.05;100956.78;5282345;28;20040;-72
2023/07/21 08:30:08;;;;;;;11.68;9.73;;;;;;;19.83;58.52;100950.84;5285449;28;20066;-70
2023/07/21 08:32:43;;;;;;;12.40;11.10;;;;;;;19.86;60.04;100955.97;5284049;28;20032;-73
2023/07/21 08:35:14;;;;;;;12.60;11.27;;;;;;;20.17;62.09;100953.59;5283315;28;20114;-72
2023/07/21 08:37:46;;;;;;;12.07;9.77;;;;;;;20.46;60.86;100952.13;5282745;28;20048;-71
2023/07/21 08:40:19;;;;;;;11.83;10.33;;;;;;;20.65;59.32;100961.81;5284786;28;20028;-72
2023/07/21 08:42:50;;;;;;;11.40;10.30;;;;;;;20.61;58.48;100954.91;5299666;28;20090;-72
2023/07/21 08:45:25;;;;;;;13.98;12.55;;;;;;;20.33;58.14;100949.25;5284943;28;20033;-72
2023/07/21 08:47:57;;;;;;;14.60;13.18;;;;;;;20.10;59.33;100962.81;5283890;28;20037;-72
2023/07/21 08:50:28;;;;;;;14.07;11.43;;;;;;;20.46;59.87;100954.75;5284281;28;20040;-71
2023/07/21 08:53:00;;;;;;;13.93;11.30;;;;;;;20.35;56.07;100960.63;5284467;28;20037;-71
2023/07/21 08:55:31;;;;;;;11.93;10.73;;;;;;;20.15;56.64;100961.63;5284728;28;20029;-71
2023/07/21 08:58:03;;;;;;;13.00;11.73;;;;;;;20.02;59.02;100964.03;5283967;28;20029;-71
2023/07/21 09:00:37;;;;;;;12.68;11.20;;;;;;;19.94;60.50;100962.69;5284324;28;20037;-71
2023/07/21 09:03:08;;;;;;;10.77;9.77;;;;;;;19.79;57.95;100967.81;5283162;28;20032;-71
2023/07/21 09:05:45;;;;;;;13.53;10.73;;;;;;;19.66;57.90;100964.88;5282945;28;20044;-71
2023/07/21 09:08:19;;;;;;;16.10;10.68;;;;;;;19.61;58.24;100961.59;5283816;28;20380;-71
2023/07/21 09:10:50;;;;;;;11.38;10.27;;;;;;;19.68;58.30;100960.34;5284011;28;20033;-71
2023/07/21 09:13:22;;;;;;;11.43;9.67;;;;;;;19.86;58.51;100961.28;5283469;28;20522;-71
2023/07/21 09:15:56;;;;;;;13.10;10.80;;;;;;;19.54;57.87;100961.94;5283949;28;20532;-71
2023/07/21 09:18:35;;;;;;;12.77;11.50;;;;;;;19.35;59.00;100961.94;5283570;28;20032;-72
2023/07/21 09:21:16;;;;;;;13.23;11.68;;;;;;;19.16;60.49;100960.19;5299491;28;20025;-71
2023/07/21 09:23:48;;;;;;;13.27;11.27;;;;;;;19.26;62.39;100956.16;5283522;28;20052;-72
2023/07/21 09:26:23;;;;;;;14.88;13.45;;;;;;;19.46;60.35;100957.03;5283943;28;20040;-72
2023/07/21 09:28:54;;;;;;;14.63;13.30;;;;;;;19.92;59.53;100954.00;5283260;28;20420;-72
2023/07/21 09:31:28;;;;;;;15.60;14.10;;;;;;;20.55;59.37;100946.34;5282459;28;20111;-71
2023/07/21 09:34:08;;;;;;;21.55;14.45;;;;;;;21.18;57.50;100943.97;5282505;28;20396;-72
2023/07/21 09:36:44;;;;;;;19.02;17.17;;;;;;;21.07;54.63;100939.25;5283969;28;20033;-71
2023/07/21 09:39:17;;;;;;;15.98;14.57;;;;;;;21.87;56.53;100939.28;5281456;28;20452;-71
2023/07/21 09:41:51;;;;;;;17.40;15.68;;;;;;;22.44;52.22;100938.59;5283825;28;20032;-71
2023/07/21 09:44:22;;;;;;;17.50;15.18;;;;;;;22.25;50.38;100934.38;5282808;28;20123;-72
2023/07/21 09:46:55;;;;;;;16.20;14.63;;;;;;;21.66;50.39;100929.78;5282117;28;20461;-72
2023/07/21 09:49:26;;;;;;;;;;;;;;;22.60;50.81;100922.59;5283508;28;20036;-72
2023/07/21 09:51:59;;;;;;;15.20;12.43;;;;;;;22.50;49.47;100928.44;5283098;28;19922;-71
2023/07/21 09:54:32;;;;;;;17.55;12.18;;;;;;;22.20;47.84;100929.34;5282713;28;20130;-71
2023/07/21 09:57:04;;;;;;;14.27;12.82;;;;;;;21.99;48.95;100927.94;5282893;28;20040;-70
2023/07/21 09:59:38;;;;;;;15.77;14.17;;;;;;;22.32;52.23;100925.13;5282633;28;20033;-70
2023/07/21 10:02:11;;;;;;;15.45;13.90;;;;;;;22.53;48.61;100922.13;5282601;28;20487;-71
2023/07/21 10:04:46;;;;;;;14.15;12.80;;;;;;;22.32;48.59;100926.91;5282462;28;20361;-71
2023/07/21 10:07:18;;;;;;;14.95;12.30;;;;;;;22.34;50.40;100933.00;5283630;28;20067;-71
2023/07/21 10:09:50;;;;;;;15.40;12.07;;;;;;;21.74;49.08;100929.34;5282510;28;20029;-71
2023/07/21 10:12:22;;;;;;;14.65;13.15;;;;;;;20.97;51.34;100920.34;5281643;28;20049;-73
2023/07/21 10:14:53;;;;;;;16.13;14.63;;;;;;;20.69;52.60;100923.63;5282243;28;20386;-73
2023/07/21 10:17:24;;;;;;;14.47;13.03;;;;;;;20.63;55.98;100931.88;5283641;28;20384;-72
2023/07/21 10:20:11;;;;;;;11.80;10.63;;;;;;;20.35;57.26;100931.50;5282473;28;20115;-72
2023/07/21 10:22:55;;;;;;;13.38;12.02;;;;;;;19.86;58.44;100933.97;5282357;28;20025;-71
2023/07/21 10:25:26;;;;;;;18.63;14.10;;;;;;;19.65;65.33;100930.56;5283383;28;20028;-71
2023/07/21 10:28:04;;;;;;;17.43;15.83;;;;;;;19.47;71.58;100937.59;5282381;28;20099;-70
2023/07/21 10:30:35;;;;;;;19.73;17.83;;;;;;;18.99;70.61;100929.22;5282970;28;20028;-70
2023/07/21 10:33:16;;;;;;;19.00;17.10;;;;;;;18.82;74.65;100935.25;5281996;28;20028;-71
2023/07/21 10:35:48;;;;;;;18.38;16.67;;;;;;;18.60;74.20;100945.91;5282822;28;20080;-72
2023/07/21 10:38:22;;;;;;;20.25;18.23;;;;;;;18.42;73.52;100947.56;5282529;28;20029;-71
2023/07/21 10:40:53;;;;;;;21.52;19.02;;;;;;;18.35;77.77;100949.63;5282827;28;20021;-71
2023/07/21 10:43:24;;;;;;;28.80;26.00;;;;;;;16.87;91.16;100972.94;5282587;28;20043;-72
2023/07/21 10:45:56;;;;;;;16.93;11.03;;;;;;;15.80;87.22;100970.38;5282886;28;20044;-73
2023/07/21 10:48:27;;;;;;;7.70;5.33;;;;;;;14.92;88.22;100947.56;5282484;28;20371;-73
2023/07/21 10:50:59;;;;;;;6.00;4.57;;;;;;;14.56;91.14;100947.63;5282371;28;20039;-73
2023/07/21 10:53:31;;;;;;;8.25;7.30;;;;;;;14.71;99.15;100956.88;5285393;28;20051;-73
2023/07/21 10:56:07;;;;;;;10.43;9.30;;;;;;;14.57;100.00;100954.59;5287127;28;20032;-73
2023/07/21 10:58:38;;;;;;;15.68;14.20;;;;;;;14.85;100.00;100955.66;5286316;28;20028;-73
2023/07/21 11:01:10;;;;;;;18.97;17.00;;;;;;;14.89;100.00;100954.66;5286707;28;20413;-74
2023/07/21 11:03:43;;;;;;;21.17;19.25;;;;;;;14.84;100.00;100957.41;5285857;28;20081;-73
2023/07/21 11:06:14;;;;;;;23.73;21.23;;;;;;;14.88;100.00;100964.28;5286662;28;20029;-73
2023/07/21 11:08:46;;;;;;;18.70;16.80;;;;;;;14.84;100.00;100960.00;5285595;28;20082;-71
2023/07/21 11:11:17;;;;;;;17.10;15.53;;;;;;;14.71;100.00;100969.13;5286462;28;20298;-72
2023/07/21 11:13:49;;;;;;;16.67;15.17;;;;;;;14.62;100.00;100972.00;5284808;28;20368;-73
2023/07/21 11:16:20;;;;;;;15.90;14.40;;;;;;;14.61;100.00;100970.31;5286581;28;20036;-72
2023/07/21 11:18:52;;;;;;;16.50;14.37;;;;;;;14.49;100.00;100981.91;5284883;28;20020;-72
2023/07/21 11:21:23;;;;;;;17.38;15.77;;;;;;;14.65;100.00;100985.94;5286039;28;20090;-72
2023/07/21 11:24:01;;;;;;;15.23;13.70;;;;;;;14.74;100.00;100988.28;5285722;28;20036;-72
2023/07/21 11:26:33;;;;;;;14.95;13.57;;;;;;;14.88;100.00;100984.44;5285159;28;20028;-73
2023/07/21 11:29:08;;;;;;;14.40;13.00;;;;;;;14.97;100.00;100994.66;5285645;28;20027;-73
2023/07/21 11:31:40;;;;;;;14.45;13.20;;;;;;;15.05;100.00;100983.94;5286232;28;20056;-73
2023/07/21 11:34:22;;;;;;;14.27;13.07;;;;;;;15.30;100.00;100990.22;5284795;28;20105;-73
2023/07/21 11:36:55;;;;;;;;;;;;;;;15.50;100.00;100987.03;5286744;28;20024;-73
2023/07/21 11:39:28;;;;;;;12.95;11.65;;;;;;;15.93;100.00;100982.22;5284750;28;19916;-73